Time,TemperatureF,DewpointF,PressureIn,WindDirection,WindDirectionDegrees,WindSpeedMPH,WindSpeedGustMPH,Humidity,HourlyPrecipIn,Conditions,Clouds,dailyrainin,SoftwareType,DateUTC
2013-11-09 00:01:00,32.7,21.1,30.05,NE,48,0.0,1.0,62,0.00,,OVC045,0.00,VWS V12.08,2013-11-09 05:01:00,
2013-11-09 00:03:00,32.7,21.1,30.05,NE,48,0.0,0.0,62,0.00,,OVC045,0.00,VWS V12.08,2013-11-09 05:03:00,
2013-11-09 00:08:00,32.5,20.9,30.05,ENE,61,0.0,2.0,62,0.00,,OVC045,0.00,VWS V12.08,2013-11-09 05:08:00,
2013-11-09 00:13:00,32.4,20.5,30.05,ENE,61,0.0,0.0,61,0.00,,OVC045,0.00,VWS V12.08,2013-11-09 05:13:00,
2013-11-09 00:18:00,32.4,20.9,30.05,ENE,61,0.0,0.0,62,0.00,,OVC045,0.00,VWS V12.08,2013-11-09 05:18:00,
2013-11-09 00:23:00,32.2,21.0,30.05,NE,54,1.0,3.0,63,0.00,,OVC045,0.00,VWS V12.08,2013-11-09 05:23:00,
2013-11-09 00:28:00,32.1,20.9,30.05,NE,55,0.0,0.0,63,0.00,,OVC045,0.00,VWS V12.08,2013-11-09 05:28:00,
2013-11-09 00:33:00,32.1,20.6,30.05,ENE,64,1.0,2.0,62,0.00,,OVC045,0.00,VWS V12.08,2013-11-09 05:33:00,
2013-11-09 00:38:00,32.1,20.9,30.05,SSE,157,1.0,2.0,63,0.00,,OVC045,0.00,VWS V12.08,2013-11-09 05:38:00,
2013-11-09 00:43:00,32.1,21.3,30.05,SSE,155,0.0,0.0,64,0.00,,OVC036,0.00,VWS V12.08,2013-11-09 05:43:00,
2013-11-09 00:48:00,32.1,21.3,30.06,SSE,157,0.0,0.0,64,0.00,,OVC036,0.00,VWS V12.08,2013-11-09 05:48:00,
2013-11-09 00:53:00,31.9,21.1,30.06,SSE,155,0.0,0.0,64,0.00,,OVC036,0.00,VWS V12.08,2013-11-09 05:53:00,
2013-11-09 00:58:00,31.9,21.1,30.06,SSE,155,0.0,0.0,64,0.00,,OVC036,0.00,VWS V12.08,2013-11-09 05:58:00,
2013-11-09 01:03:00,31.9,21.5,30.06,SSE,155,0.0,0.0,65,0.00,,OVC036,0.00,VWS V12.08,2013-11-09 06:03:00,
2013-11-09 01:08:00,31.8,21.4,30.06,SSE,155,0.0,0.0,65,0.00,,OVC036,0.00,VWS V12.08,2013-11-09 06:08:00,
2013-11-09 01:13:00,31.6,21.2,30.06,SSE,157,0.0,0.0,65,0.00,,OVC036,0.00,VWS V12.08,2013-11-09 06:13:00,
2013-11-09 01:18:00,31.6,21.2,30.06,SSE,155,0.0,0.0,65,0.00,,OVC036,0.00,VWS V12.08,2013-11-09 06:18:00,
2013-11-09 01:23:00,31.5,21.5,30.06,SSE,155,0.0,0.0,66,0.00,,OVC036,0.00,VWS V12.08,2013-11-09 06:23:00,
2013-11-09 01:28:00,31.5,21.5,30.06,SSE,155,1.0,1.0,66,0.00,,OVC036,0.00,VWS V12.08,2013-11-09 06:28:00,
2013-11-09 01:33:00,31.3,21.6,30.07,SSE,155,0.0,0.0,67,0.00,,OVC036,0.00,VWS V12.08,2013-11-09 06:33:00,
2013-11-09 01:38:00,31.0,21.7,30.07,SSE,155,0.0,0.0,68,0.00,,OVC036,0.00,VWS V12.08,2013-11-09 06:38:00,
2013-11-09 01:43:00,31.0,21.7,30.07,SSE,155,0.0,0.0,68,0.00,,OVC055,0.00,VWS V12.08,2013-11-09 06:43:00,
2013-11-09 01:48:00,31.0,22.0,30.07,SSE,155,0.0,0.0,69,0.00,,OVC055,0.00,VWS V12.08,2013-11-09 06:48:00,
2013-11-09 01:53:00,30.9,22.6,30.07,SSE,157,0.0,0.0,71,0.00,,OVC055,0.00,VWS V12.08,2013-11-09 06:53:00,
2013-11-09 01:58:00,30.7,22.4,30.07,SSE,155,0.0,0.0,71,0.00,,OVC055,0.00,VWS V12.08,2013-11-09 06:58:00,
2013-11-09 02:03:00,30.6,22.7,30.07,SSE,155,0.0,0.0,72,0.00,,OVC055,0.00,VWS V12.08,2013-11-09 07:03:00,
2013-11-09 02:08:00,30.4,23.1,30.07,SSE,157,0.0,0.0,74,0.00,,OVC055,0.00,VWS V12.08,2013-11-09 07:08:00,
2013-11-09 02:13:00,30.4,23.1,30.07,SSE,155,0.0,0.0,74,0.00,,OVC055,0.00,VWS V12.08,2013-11-09 07:13:00,
2013-11-09 02:18:00,30.4,22.8,30.08,SSE,157,0.0,0.0,73,0.00,,OVC055,0.00,VWS V12.08,2013-11-09 07:18:00,
2013-11-09 02:23:00,30.4,23.1,30.08,SSE,155,0.0,0.0,74,0.00,,OVC055,0.00,VWS V12.08,2013-11-09 07:23:00,
2013-11-09 02:28:00,30.3,23.3,30.08,SSE,155,0.0,0.0,75,0.00,,OVC055,0.00,VWS V12.08,2013-11-09 07:28:00,
2013-11-09 02:33:00,30.3,23.3,30.08,SSE,155,0.0,0.0,75,0.00,,OVC055,0.00,VWS V12.08,2013-11-09 07:33:00,
2013-11-09 02:38:00,30.3,23.7,30.08,SSE,157,0.0,0.0,76,0.00,,OVC055,0.00,VWS V12.08,2013-11-09 07:38:00,
2013-11-09 02:43:00,30.3,23.7,30.08,SSE,157,0.0,0.0,76,0.00,,OVC050,0.00,VWS V12.08,2013-11-09 07:43:00,
2013-11-09 02:48:00,30.3,24.0,30.08,SSE,155,0.0,0.0,77,0.00,,OVC050,0.00,VWS V12.08,2013-11-09 07:48:00,
2013-11-09 02:53:00,30.2,23.9,30.08,SSE,155,0.0,0.0,77,0.00,,OVC050,0.00,VWS V12.08,2013-11-09 07:53:00,
2013-11-09 02:58:00,30.2,23.9,30.08,SSE,155,0.0,0.0,77,0.00,,OVC050,0.00,VWS V12.08,2013-11-09 07:58:00,
2013-11-09 03:03:00,30.2,23.6,30.08,SSE,157,0.0,0.0,76,0.00,,OVC050,0.00,VWS V12.08,2013-11-09 08:03:00,
2013-11-09 03:08:00,30.0,23.7,30.08,SSE,155,1.0,2.0,77,0.00,,OVC050,0.00,VWS V12.08,2013-11-09 08:08:00,
2013-11-09 03:13:00,30.0,24.0,30.08,SSE,167,1.0,2.0,78,0.00,,OVC050,0.00,VWS V12.08,2013-11-09 08:13:00,
2013-11-09 03:18:00,29.9,24.2,30.09,SSE,168,0.0,3.0,79,0.00,,OVC050,0.00,VWS V12.08,2013-11-09 08:18:00,
2013-11-09 03:23:00,29.9,23.3,30.09,WSW,244,2.0,6.0,76,0.00,,OVC050,0.00,VWS V12.08,2013-11-09 08:23:00,
2013-11-09 03:28:00,30.2,22.6,30.09,West,271,0.0,0.0,73,0.00,,OVC050,0.00,VWS V12.08,2013-11-09 08:28:00,
2013-11-09 03:33:00,30.4,22.1,30.09,West,271,0.0,2.0,71,0.00,,OVC050,0.00,VWS V12.08,2013-11-09 08:33:00,
2013-11-09 03:38:00,30.9,21.9,30.09,West,270,0.0,2.0,69,0.00,,OVC050,0.00,VWS V12.08,2013-11-09 08:38:00,
2013-11-09 03:43:00,31.3,21.6,30.09,ENE,66,0.0,5.0,67,0.00,,OVC042,0.00,VWS V12.08,2013-11-09 08:43:00,
2013-11-09 03:48:00,31.8,21.4,30.09,SE,143,1.0,5.0,65,0.00,,OVC042,0.00,VWS V12.08,2013-11-09 08:48:00,
2013-11-09 03:53:00,31.9,21.9,30.09,South,189,1.0,1.0,66,0.00,,OVC042,0.00,VWS V12.08,2013-11-09 08:53:00,
2013-11-09 03:58:00,31.9,21.1,30.09,ENE,68,5.0,8.0,64,0.00,,OVC042,0.00,VWS V12.08,2013-11-09 08:58:00,
2013-11-09 04:03:00,32.1,21.3,30.10,South,185,0.0,0.0,64,0.00,,OVC042,0.00,VWS V12.08,2013-11-09 09:03:00,
2013-11-09 04:08:00,32.1,21.3,30.10,WSW,256,1.0,2.0,64,0.00,,OVC042,0.00,VWS V12.08,2013-11-09 09:08:00,
2013-11-09 04:13:00,32.1,20.9,30.10,West,264,1.0,2.0,63,0.00,,OVC042,0.00,VWS V12.08,2013-11-09 09:13:00,
2013-11-09 04:18:00,32.1,20.9,30.11,East,85,3.0,5.0,63,0.00,,OVC042,0.00,VWS V12.08,2013-11-09 09:18:00,
2013-11-09 04:23:00,32.1,20.2,30.11,NW,315,1.0,2.0,61,0.00,,OVC042,0.00,VWS V12.08,2013-11-09 09:23:00,
2013-11-09 04:28:00,32.2,20.3,30.11,NW,313,0.0,2.0,61,0.00,,OVC042,0.00,VWS V12.08,2013-11-09 09:28:00,
2013-11-09 04:33:00,32.2,20.3,30.11,NW,316,0.0,2.0,61,0.00,,OVC042,0.00,VWS V12.08,2013-11-09 09:33:00,
2013-11-09 04:38:00,32.2,20.7,30.11,NE,47,2.0,2.0,62,0.00,,OVC042,0.00,VWS V12.08,2013-11-09 09:38:00,
2013-11-09 04:43:00,32.1,19.8,30.12,East,99,1.0,3.0,60,0.00,,OVC038,0.00,VWS V12.08,2013-11-09 09:43:00,
2013-11-09 04:48:00,32.1,19.8,30.12,North,350,1.0,3.0,60,0.00,,OVC038,0.00,VWS V12.08,2013-11-09 09:48:00,
2013-11-09 04:53:00,32.1,19.8,30.12,NNW,339,2.0,8.0,60,0.00,,OVC038,0.00,VWS V12.08,2013-11-09 09:53:00,
2013-11-09 04:59:00,32.1,19.4,30.12,NW,315,0.0,1.0,59,0.00,,OVC038,0.00,VWS V12.08,2013-11-09 09:59:00,
2013-11-09 05:04:00,32.1,19.8,30.12,NW,316,0.0,0.0,60,0.00,,OVC038,0.00,VWS V12.08,2013-11-09 10:04:00,
2013-11-09 05:09:00,32.1,20.6,30.12,NW,316,1.0,1.0,62,0.00,,OVC038,0.00,VWS V12.08,2013-11-09 10:09:00,
2013-11-09 05:14:00,32.1,20.2,30.12,WSW,247,2.0,3.0,61,0.00,,OVC038,0.00,VWS V12.08,2013-11-09 10:14:00,
2013-11-09 05:19:00,32.1,19.4,30.12,WSW,250,0.0,2.0,59,0.00,,OVC038,0.00,VWS V12.08,2013-11-09 10:19:00,
2013-11-09 05:24:00,32.1,19.4,30.12,ESE,121,0.0,3.0,59,0.00,,OVC038,0.00,VWS V12.08,2013-11-09 10:24:00,
2013-11-09 05:29:00,32.1,20.2,30.12,ESE,123,0.0,1.0,61,0.00,,OVC038,0.00,VWS V12.08,2013-11-09 10:29:00,
2013-11-09 05:34:00,32.1,20.2,30.12,ESE,121,0.0,0.0,61,0.00,,OVC038,0.00,VWS V12.08,2013-11-09 10:34:00,
2013-11-09 05:39:00,31.9,20.0,30.12,ESE,123,0.0,0.0,61,0.00,,OVC038,0.00,VWS V12.08,2013-11-09 10:39:00,
2013-11-09 05:44:00,31.9,20.8,30.12,ESE,123,0.0,1.0,63,0.00,,OVC036,0.00,VWS V12.08,2013-11-09 10:44:00,
2013-11-09 05:49:00,31.8,20.3,30.12,SE,136,2.0,3.0,62,0.00,,OVC036,0.00,VWS V12.08,2013-11-09 10:49:00,
2013-11-09 05:54:00,31.8,20.3,30.12,NNE,31,1.0,4.0,62,0.00,,OVC036,0.00,VWS V12.08,2013-11-09 10:54:00,
2013-11-09 05:59:00,31.8,19.9,30.13,NNW,335,1.0,4.0,61,0.00,,OVC036,0.00,VWS V12.08,2013-11-09 10:59:00,
2013-11-09 06:04:00,31.8,19.9,30.13,NNW,340,0.0,1.0,61,0.00,,OVC036,0.00,VWS V12.08,2013-11-09 11:04:00,
2013-11-09 06:09:00,31.8,19.9,30.13,SW,230,1.0,3.0,61,0.00,,OVC036,0.00,VWS V12.08,2013-11-09 11:09:00,
2013-11-09 06:14:00,31.8,20.3,30.13,NW,311,0.0,3.0,62,0.00,,OVC036,0.00,VWS V12.08,2013-11-09 11:14:00,
2013-11-09 06:19:00,31.8,19.9,30.13,NE,54,0.0,3.0,61,0.00,,OVC036,0.00,VWS V12.08,2013-11-09 11:19:00,
2013-11-09 06:24:00,31.8,19.9,30.13,NW,311,2.0,6.0,61,0.00,,OVC036,0.00,VWS V12.08,2013-11-09 11:24:00,
2013-11-09 06:29:00,31.8,19.9,30.13,NW,311,0.0,0.0,61,0.00,,OVC036,0.00,VWS V12.08,2013-11-09 11:29:00,
2013-11-09 06:34:00,31.8,19.9,30.13,SW,230,1.0,2.0,61,0.00,,OVC036,0.00,VWS V12.08,2013-11-09 11:34:00,
2013-11-09 06:39:00,31.8,20.3,30.13,East,99,2.0,3.0,62,0.00,,OVC036,0.00,VWS V12.08,2013-11-09 11:39:00,
2013-11-09 06:44:00,31.8,20.7,30.13,East,97,0.0,0.0,63,0.00,,OVC038,0.00,VWS V12.08,2013-11-09 11:44:00,
2013-11-09 06:49:00,31.6,20.1,30.13,NNW,340,5.0,5.0,62,0.00,,OVC038,0.00,VWS V12.08,2013-11-09 11:49:00,
2013-11-09 06:54:00,31.6,20.1,30.13,NNW,344,3.0,3.0,62,0.00,,OVC038,0.00,VWS V12.08,2013-11-09 11:54:00,
2013-11-09 06:59:00,31.8,19.9,30.14,NE,34,0.0,1.0,61,0.00,,OVC038,0.00,VWS V12.08,2013-11-09 11:59:00,
2013-11-09 07:04:00,31.8,19.9,30.14,NE,34,0.0,2.0,61,0.00,,OVC038,0.00,VWS V12.08,2013-11-09 12:04:00,
2013-11-09 07:09:00,31.8,20.7,30.14,NE,34,0.0,0.0,63,0.00,,OVC038,0.00,VWS V12.08,2013-11-09 12:09:00,
2013-11-09 07:14:00,31.8,20.7,30.14,NE,34,0.0,0.0,63,0.00,,OVC038,0.00,VWS V12.08,2013-11-09 12:14:00,
2013-11-09 07:19:00,31.8,19.9,30.14,NE,35,2.0,4.0,61,0.00,,OVC038,0.00,VWS V12.08,2013-11-09 12:19:00,
2013-11-09 07:24:00,31.9,20.8,30.14,NE,37,0.0,0.0,63,0.00,,OVC038,0.00,VWS V12.08,2013-11-09 12:24:00,
2013-11-09 07:29:00,31.9,20.0,30.15,NE,49,2.0,4.0,61,0.00,,OVC038,0.00,VWS V12.08,2013-11-09 12:29:00,
2013-11-09 07:34:00,31.9,20.4,30.15,NE,54,0.0,0.0,62,0.00,,OVC038,0.00,VWS V12.08,2013-11-09 12:34:00,
2013-11-09 07:39:00,32.1,20.2,30.15,North,0,1.0,5.0,61,0.00,,OVC038,0.00,VWS V12.08,2013-11-09 12:39:00,
2013-11-09 07:44:00,32.1,20.2,30.14,South,189,0.0,2.0,61,0.00,,OVC038,0.00,VWS V12.08,2013-11-09 12:44:00,
2013-11-09 07:49:00,32.2,20.3,30.14,South,189,0.0,2.0,61,0.00,,OVC038,0.00,VWS V12.08,2013-11-09 12:49:00,
2013-11-09 07:54:00,32.2,19.9,30.14,NNW,336,1.0,1.0,60,0.00,,OVC038,0.00,VWS V12.08,2013-11-09 12:54:00,
2013-11-09 07:59:00,32.4,20.9,30.15,NNW,336,1.0,2.0,62,0.00,,OVC038,0.00,VWS V12.08,2013-11-09 12:59:00,
2013-11-09 08:04:00,32.4,20.5,30.15,SW,222,1.0,2.0,61,0.00,,OVC038,0.00,VWS V12.08,2013-11-09 13:04:00,
2013-11-09 08:09:00,32.5,20.2,30.15,SW,224,0.0,0.0,60,0.00,,OVC038,0.00,VWS V12.08,2013-11-09 13:09:00,
2013-11-09 08:14:00,33.0,20.2,30.15,West,263,0.0,2.0,59,0.00,,OVC038,0.00,VWS V12.08,2013-11-09 13:14:00,
2013-11-09 08:19:00,33.5,19.9,30.15,WNW,292,3.0,7.0,57,0.00,,OVC038,0.00,VWS V12.08,2013-11-09 13:19:00,
2013-11-09 08:24:00,33.7,20.5,30.15,ENE,78,1.0,4.0,58,0.00,,OVC038,0.00,VWS V12.08,2013-11-09 13:24:00,
2013-11-09 08:29:00,34.3,20.2,30.15,SW,217,0.0,3.0,56,0.00,,OVC038,0.00,VWS V12.08,2013-11-09 13:29:00,
2013-11-09 08:34:00,34.5,20.4,30.15,NW,320,2.0,3.0,56,0.00,,OVC038,0.00,VWS V12.08,2013-11-09 13:34:00,
2013-11-09 08:39:00,34.5,20.9,30.15,ESE,120,3.0,3.0,57,0.00,,OVC038,0.00,VWS V12.08,2013-11-09 13:39:00,
2013-11-09 08:44:00,34.8,20.7,30.15,NW,316,5.0,6.0,56,0.00,,OVC040,0.00,VWS V12.08,2013-11-09 13:44:00,
2013-11-09 08:49:00,35.0,20.5,30.15,North,0,1.0,5.0,55,0.00,,OVC040,0.00,VWS V12.08,2013-11-09 13:49:00,
2013-11-09 08:54:00,34.8,19.9,30.15,WNW,284,0.0,1.0,54,0.00,,OVC040,0.00,VWS V12.08,2013-11-09 13:54:00,
2013-11-09 08:59:00,34.3,20.2,30.15,South,191,0.0,2.0,56,0.00,,OVC040,0.00,VWS V12.08,2013-11-09 13:59:00,
2013-11-09 09:04:00,34.1,20.1,30.15,South,179,2.0,3.0,56,0.00,,OVC040,0.00,VWS V12.08,2013-11-09 14:04:00,
2013-11-09 09:09:00,34.1,20.1,30.15,SW,219,1.0,2.0,56,0.00,,OVC040,0.00,VWS V12.08,2013-11-09 14:09:00,
2013-11-09 09:14:00,34.0,20.0,30.15,NNE,16,3.0,3.0,56,0.00,,OVC040,0.00,VWS V12.08,2013-11-09 14:14:00,
2013-11-09 09:19:00,34.3,20.2,30.15,NW,308,1.0,7.0,56,0.00,,OVC040,0.00,VWS V12.08,2013-11-09 14:19:00,
2013-11-09 09:24:00,35.3,19.9,30.15,ENE,72,0.0,3.0,53,0.00,,OVC040,0.00,VWS V12.08,2013-11-09 14:24:00,
2013-11-09 09:29:00,35.3,20.3,30.15,East,97,1.0,9.0,54,0.00,,OVC040,0.00,VWS V12.08,2013-11-09 14:29:00,
2013-11-09 09:34:00,34.8,20.7,30.15,NNE,31,1.0,2.0,56,0.00,,OVC040,0.00,VWS V12.08,2013-11-09 14:34:00,
2013-11-09 09:39:00,34.5,20.0,30.15,NW,313,1.0,6.0,55,0.00,,OVC040,0.00,VWS V12.08,2013-11-09 14:39:00,
2013-11-09 09:44:00,34.4,20.3,30.16,ESE,110,3.0,3.0,56,0.00,,OVC038,0.00,VWS V12.08,2013-11-09 14:44:00,
2013-11-09 09:49:00,34.3,20.2,30.16,SSW,192,6.0,6.0,56,0.00,,OVC038,0.00,VWS V12.08,2013-11-09 14:49:00,
2013-11-09 09:54:00,34.5,19.6,30.16,WNW,302,5.0,6.0,54,0.00,,OVC038,0.00,VWS V12.08,2013-11-09 14:54:00,
2013-11-09 09:59:00,35.1,20.6,30.15,NW,315,2.0,3.0,55,0.00,,OVC038,0.00,VWS V12.08,2013-11-09 14:59:00,
2013-11-09 10:04:00,35.7,20.3,30.15,West,278,0.0,2.0,53,0.00,,OVC038,0.00,VWS V12.08,2013-11-09 15:04:00,
2013-11-09 10:09:00,36.4,20.0,30.15,NNW,342,1.0,6.0,51,0.00,,OVC038,0.00,VWS V12.08,2013-11-09 15:09:00,
2013-11-09 10:14:00,36.3,20.4,30.14,NW,305,0.0,5.0,52,0.00,,OVC038,0.00,VWS V12.08,2013-11-09 15:14:00,
2013-11-09 10:19:00,36.0,20.1,30.14,NNE,16,0.0,3.0,52,0.00,,OVC038,0.00,VWS V12.08,2013-11-09 15:19:00,
2013-11-09 10:24:00,36.1,20.6,30.14,SSW,213,0.0,3.0,53,0.00,,OVC038,0.00,VWS V12.08,2013-11-09 15:24:00,
2013-11-09 10:29:00,36.8,19.9,30.14,SSE,158,0.0,2.0,50,0.00,,OVC038,0.00,VWS V12.08,2013-11-09 15:29:00,
2013-11-09 10:34:00,36.8,20.4,30.14,NNE,17,0.0,2.0,51,0.00,,OVC038,0.00,VWS V12.08,2013-11-09 15:34:00,
2013-11-09 10:39:00,36.4,20.5,30.14,NE,51,1.0,2.0,52,0.00,,OVC038,0.00,VWS V12.08,2013-11-09 15:39:00,
2013-11-09 10:44:00,36.3,20.4,30.14,ENE,65,1.0,3.0,52,0.00,,OVC038,0.00,VWS V12.08,2013-11-09 15:44:00,
2013-11-09 10:49:00,36.3,20.4,30.14,NW,316,2.0,2.0,52,0.00,,OVC038,0.00,VWS V12.08,2013-11-09 15:49:00,
2013-11-09 10:55:00,36.1,20.2,30.14,WSW,247,2.0,4.0,52,0.00,,OVC038,0.00,VWS V12.08,2013-11-09 15:55:00,
2013-11-09 11:00:00,36.7,20.8,30.14,NNW,333,1.0,3.0,52,0.00,,OVC038,0.00,VWS V12.08,2013-11-09 16:00:00,
2013-11-09 11:05:00,37.3,21.3,30.14,WNW,282,5.0,6.0,52,0.00,,OVC038,0.00,VWS V12.08,2013-11-09 16:05:00,
2013-11-09 11:10:00,37.1,20.2,30.14,NW,323,3.0,3.0,50,0.00,,OVC038,0.00,VWS V12.08,2013-11-09 16:10:00,
2013-11-09 11:15:00,36.8,20.8,30.13,West,281,1.0,2.0,52,0.00,,OVC038,0.00,VWS V12.08,2013-11-09 16:15:00,
2013-11-09 11:20:00,36.4,20.5,30.13,NW,315,1.0,2.0,52,0.00,,OVC038,0.00,VWS V12.08,2013-11-09 16:20:00,
2013-11-09 11:25:00,36.7,20.3,30.13,SW,223,1.0,3.0,51,0.00,,OVC038,0.00,VWS V12.08,2013-11-09 16:25:00,
2013-11-09 11:30:00,37.4,20.9,30.12,WSW,239,0.0,2.0,51,0.00,,OVC038,0.00,VWS V12.08,2013-11-09 16:30:00,
2013-11-09 11:35:00,38.6,21.1,30.12,ENE,78,3.0,3.0,49,0.00,,OVC038,0.00,VWS V12.08,2013-11-09 16:35:00,
2013-11-09 11:40:00,38.4,20.9,30.12,NE,56,3.0,3.0,49,0.00,,OVC038,0.00,VWS V12.08,2013-11-09 16:40:00,
2013-11-09 11:45:00,38.0,20.1,30.12,North,0,5.0,5.0,48,0.00,,OVC039,0.00,VWS V12.08,2013-11-09 16:45:00,
2013-11-09 11:50:00,38.0,20.5,30.12,NNW,347,1.0,3.0,49,0.00,,OVC039,0.00,VWS V12.08,2013-11-09 16:50:00,
2013-11-09 11:55:00,38.3,20.4,30.12,NNW,346,3.0,3.0,48,0.00,,OVC039,0.00,VWS V12.08,2013-11-09 16:55:00,
2013-11-09 12:00:00,38.4,20.4,30.11,ENE,65,2.0,3.0,48,0.00,,OVC039,0.00,VWS V12.08,2013-11-09 17:00:00,
2013-11-09 12:05:00,38.6,20.1,30.11,WNW,302,3.0,5.0,47,0.00,,OVC039,0.00,VWS V12.08,2013-11-09 17:05:00,
2013-11-09 12:10:00,38.4,20.9,30.11,East,93,2.0,3.0,49,0.00,,OVC039,0.00,VWS V12.08,2013-11-09 17:10:00,
2013-11-09 12:15:00,37.7,19.8,30.11,West,271,0.0,3.0,48,0.00,,OVC039,0.00,VWS V12.08,2013-11-09 17:15:00,
2013-11-09 12:20:00,37.6,19.2,30.11,East,96,1.0,2.0,47,0.00,,OVC039,0.00,VWS V12.08,2013-11-09 17:20:00,
2013-11-09 12:25:00,37.6,20.2,30.11,NW,304,2.0,7.0,49,0.00,,OVC039,0.00,VWS V12.08,2013-11-09 17:25:00,
2013-11-09 12:30:00,37.6,20.2,30.11,West,261,0.0,2.0,49,0.00,,OVC039,0.00,VWS V12.08,2013-11-09 17:30:00,
2013-11-09 12:35:00,37.6,20.2,30.11,North,349,2.0,3.0,49,0.00,,OVC039,0.00,VWS V12.08,2013-11-09 17:35:00,
2013-11-09 12:40:00,37.7,20.8,30.11,ENE,66,3.0,3.0,50,0.00,,OVC039,0.00,VWS V12.08,2013-11-09 17:40:00,
2013-11-09 12:45:00,37.6,20.7,30.10,South,179,0.0,2.0,50,0.00,,OVC037,0.00,VWS V12.08,2013-11-09 17:45:00,
2013-11-09 12:50:00,37.6,20.2,30.10,WSW,241,0.0,1.0,49,0.00,,OVC037,0.00,VWS V12.08,2013-11-09 17:50:00,
2013-11-09 12:55:00,37.3,20.4,30.10,WSW,241,0.0,0.0,50,0.00,,OVC037,0.00,VWS V12.08,2013-11-09 17:55:00,
2013-11-09 13:00:00,37.1,19.7,30.10,WSW,257,1.0,3.0,49,0.00,,OVC037,0.00,VWS V12.08,2013-11-09 18:00:00,
2013-11-09 13:05:00,37.3,20.9,30.10,NW,323,0.0,2.0,51,0.00,,OVC037,0.00,VWS V12.08,2013-11-09 18:05:00,
2013-11-09 13:10:00,37.4,21.4,30.10,NW,322,0.0,0.0,52,0.00,,OVC037,0.00,VWS V12.08,2013-11-09 18:10:00,
2013-11-09 13:15:00,37.4,20.9,30.09,SW,234,0.0,0.0,51,0.00,,OVC037,0.00,VWS V12.08,2013-11-09 18:15:00,
2013-11-09 13:20:00,37.4,20.0,30.09,WSW,244,0.0,1.0,49,0.00,,OVC037,0.00,VWS V12.08,2013-11-09 18:20:00,
2013-11-09 13:25:00,37.3,20.4,30.09,NNW,332,1.0,1.0,50,0.00,,OVC037,0.00,VWS V12.08,2013-11-09 18:25:00,
2013-11-09 13:30:00,37.0,20.6,30.09,NE,56,1.0,2.0,51,0.00,,OVC037,0.00,VWS V12.08,2013-11-09 18:30:00,
2013-11-09 13:35:00,36.7,19.8,30.09,NE,56,0.0,0.0,50,0.00,,OVC037,0.00,VWS V12.08,2013-11-09 18:35:00,
2013-11-09 13:40:00,36.7,20.3,30.09,ENE,61,0.0,2.0,51,0.00,,OVC037,0.00,VWS V12.08,2013-11-09 18:40:00,
2013-11-09 13:45:00,37.0,20.6,30.08,WNW,298,1.0,2.0,51,0.00,,BKN041,0.00,VWS V12.08,2013-11-09 18:45:00,
2013-11-09 13:50:00,37.0,20.1,30.08,NW,306,2.0,3.0,50,0.00,,BKN041,0.00,VWS V12.08,2013-11-09 18:50:00,
2013-11-09 13:55:00,37.0,20.6,30.08,NW,306,0.0,0.0,51,0.00,,BKN041,0.00,VWS V12.08,2013-11-09 18:55:00,
2013-11-09 14:00:00,37.0,21.0,30.08,NW,306,0.0,0.0,52,0.00,,BKN041,0.00,VWS V12.08,2013-11-09 19:00:00,
2013-11-09 14:05:00,37.1,21.1,30.08,NW,308,0.0,0.0,52,0.00,,BKN041,0.00,VWS V12.08,2013-11-09 19:05:00,
2013-11-09 14:10:00,37.1,20.7,30.08,NW,308,1.0,1.0,51,0.00,,BKN041,0.00,VWS V12.08,2013-11-09 19:10:00,
2013-11-09 14:15:00,37.3,20.9,30.07,NW,308,0.0,0.0,51,0.00,,BKN041,0.00,VWS V12.08,2013-11-09 19:15:00,
2013-11-09 14:20:00,37.1,20.2,30.07,NW,308,0.0,0.0,50,0.00,,BKN041,0.00,VWS V12.08,2013-11-09 19:20:00,
2013-11-09 14:25:00,36.8,19.9,30.07,SE,130,3.0,3.0,50,0.00,,BKN041,0.00,VWS V12.08,2013-11-09 19:25:00,
2013-11-09 14:30:00,36.4,20.0,30.06,SE,141,1.0,2.0,51,0.00,,BKN041,0.00,VWS V12.08,2013-11-09 19:30:00,
2013-11-09 14:35:00,36.3,20.8,30.06,SE,141,0.0,0.0,53,0.00,,BKN041,0.00,VWS V12.08,2013-11-09 19:35:00,
2013-11-09 14:40:00,36.4,20.0,30.06,SE,141,0.0,0.0,51,0.00,,FEW041,0.00,VWS V12.08,2013-11-09 19:40:00,
2013-11-09 14:45:00,36.6,20.2,30.06,SE,141,0.0,0.0,51,0.00,,FEW041,0.00,VWS V12.08,2013-11-09 19:45:00,
2013-11-09 14:50:00,36.6,20.2,30.06,SE,141,0.0,0.0,51,0.00,,FEW041,0.00,VWS V12.08,2013-11-09 19:50:00,
2013-11-09 14:55:00,36.7,20.8,30.06,SE,141,0.0,0.0,52,0.00,,FEW041,0.00,VWS V12.08,2013-11-09 19:55:00,
2013-11-09 15:00:00,37.0,21.0,30.06,SE,141,0.0,0.0,52,0.00,,FEW041,0.00,VWS V12.08,2013-11-09 20:00:00,
2013-11-09 15:05:00,37.1,21.1,30.06,SE,141,0.0,0.0,52,0.00,,FEW041,0.00,VWS V12.08,2013-11-09 20:05:00,
2013-11-09 15:10:00,37.1,20.7,30.06,SE,141,0.0,0.0,51,0.00,,FEW041,0.00,VWS V12.08,2013-11-09 20:10:00,
2013-11-09 15:15:00,37.1,20.2,30.06,SE,141,0.0,0.0,50,0.00,,FEW041,0.00,VWS V12.08,2013-11-09 20:15:00,
2013-11-09 15:20:00,37.0,20.1,30.06,SE,141,0.0,0.0,50,0.00,,FEW041,0.00,VWS V12.08,2013-11-09 20:20:00,
2013-11-09 15:25:00,36.7,20.3,30.06,SE,141,0.0,0.0,51,0.00,,FEW041,0.00,VWS V12.08,2013-11-09 20:25:00,
2013-11-09 15:30:00,36.8,19.9,30.05,SE,141,0.0,0.0,50,0.00,,FEW041,0.00,VWS V12.08,2013-11-09 20:30:00,
2013-11-09 15:35:00,36.8,20.4,30.05,ESE,110,0.0,0.0,51,0.00,,FEW041,0.00,VWS V12.08,2013-11-09 20:35:00,
2013-11-09 15:40:00,36.7,20.3,30.05,ESE,110,2.0,2.0,51,0.00,,BKN110,0.00,VWS V12.08,2013-11-09 20:40:00,
2013-11-09 15:45:00,36.4,20.0,30.05,ESE,110,0.0,0.0,51,0.00,,BKN110,0.00,VWS V12.08,2013-11-09 20:45:00,
2013-11-09 15:50:00,36.4,20.0,30.05,ESE,110,0.0,0.0,51,0.00,,BKN110,0.00,VWS V12.08,2013-11-09 20:50:00,
2013-11-09 15:55:00,36.6,19.7,30.05,ESE,110,0.0,0.0,50,0.00,,BKN110,0.00,VWS V12.08,2013-11-09 20:55:00,
2013-11-09 16:00:00,36.6,20.2,30.05,ESE,110,0.0,0.0,51,0.00,,BKN110,0.00,VWS V12.08,2013-11-09 21:00:00,
2013-11-09 16:05:00,36.7,20.8,30.05,ESE,110,0.0,0.0,52,0.00,,BKN110,0.00,VWS V12.08,2013-11-09 21:05:00,
2013-11-09 16:10:00,36.8,20.4,30.05,ESE,110,0.0,0.0,51,0.00,,BKN110,0.00,VWS V12.08,2013-11-09 21:10:00,
2013-11-09 16:15:00,36.8,21.3,30.05,ESE,110,0.0,0.0,53,0.00,,BKN110,0.00,VWS V12.08,2013-11-09 21:15:00,
2013-11-09 16:20:00,36.8,21.3,30.05,ESE,110,0.0,0.0,53,0.00,,BKN110,0.00,VWS V12.08,2013-11-09 21:20:00,
2013-11-09 16:25:00,36.8,22.2,30.05,ESE,110,0.0,0.0,55,0.00,,BKN110,0.00,VWS V12.08,2013-11-09 21:25:00,
2013-11-09 16:30:00,36.6,22.8,30.05,ESE,110,0.0,0.0,57,0.00,,BKN110,0.00,VWS V12.08,2013-11-09 21:30:00,
2013-11-09 16:35:00,36.1,23.2,30.05,ESE,110,0.0,0.0,59,0.00,,BKN110,0.00,VWS V12.08,2013-11-09 21:35:00,
2013-11-09 16:40:00,35.8,22.9,30.05,ESE,110,0.0,0.0,59,0.00,,OVC100,0.00,VWS V12.08,2013-11-09 21:40:00,
2013-11-09 16:46:00,35.3,22.8,30.05,ESE,110,0.0,0.0,60,0.00,,OVC100,0.00,VWS V12.08,2013-11-09 21:46:00,
2013-11-09 16:51:00,34.8,22.7,30.05,ESE,110,0.0,0.0,61,0.00,,OVC100,0.00,VWS V12.08,2013-11-09 21:51:00,
2013-11-09 16:56:00,34.3,23.0,30.05,ESE,110,0.0,0.0,63,0.00,,OVC100,0.00,VWS V12.08,2013-11-09 21:56:00,
2013-11-09 17:01:00,33.8,22.9,30.05,ESE,110,0.0,0.0,64,0.00,,OVC100,0.00,VWS V12.08,2013-11-09 22:01:00,
2013-11-09 17:06:00,33.5,23.0,30.05,ESE,110,0.0,0.0,65,0.00,,OVC100,0.00,VWS V12.08,2013-11-09 22:06:00,
2013-11-09 17:11:00,33.1,23.0,30.05,ESE,110,0.0,0.0,66,0.00,,OVC100,0.00,VWS V12.08,2013-11-09 22:11:00,
2013-11-09 17:16:00,32.5,23.1,30.05,ESE,110,0.0,0.0,68,0.00,,OVC100,0.00,VWS V12.08,2013-11-09 22:16:00,
2013-11-09 17:21:00,32.2,22.8,30.05,ESE,110,0.0,0.0,68,0.00,,OVC100,0.00,VWS V12.08,2013-11-09 22:21:00,
2013-11-09 17:26:00,31.8,23.5,30.05,ESE,110,0.0,0.0,71,0.00,,OVC100,0.00,VWS V12.08,2013-11-09 22:26:00,
2013-11-09 17:31:00,31.3,23.0,30.06,ESE,110,0.0,0.0,71,0.00,,OVC100,0.00,VWS V12.08,2013-11-09 22:31:00,
2013-11-09 17:36:00,31.2,22.9,30.06,ESE,110,0.0,0.0,71,0.00,,OVC100,0.00,VWS V12.08,2013-11-09 22:36:00,
2013-11-09 17:41:00,31.0,22.7,30.06,ESE,110,0.0,0.0,71,0.00,,BKN090,0.00,VWS V12.08,2013-11-09 22:41:00,
2013-11-09 17:46:00,30.9,23.0,30.05,ESE,110,0.0,0.0,72,0.00,,BKN090,0.00,VWS V12.08,2013-11-09 22:46:00,
2013-11-09 17:51:00,30.7,22.8,30.05,ESE,110,0.0,0.0,72,0.00,,BKN090,0.00,VWS V12.08,2013-11-09 22:51:00,
2013-11-09 17:56:00,30.7,22.8,30.05,ESE,110,0.0,0.0,72,0.00,,BKN090,0.00,VWS V12.08,2013-11-09 22:56:00,
2013-11-09 18:01:00,30.6,23.0,30.06,ESE,110,0.0,0.0,73,0.00,,BKN090,0.00,VWS V12.08,2013-11-09 23:01:00,
2013-11-09 18:06:00,30.6,23.0,30.06,ESE,110,0.0,0.0,73,0.00,,BKN090,0.00,VWS V12.08,2013-11-09 23:06:00,
2013-11-09 18:11:00,30.4,22.8,30.06,ESE,110,0.0,0.0,73,0.00,,BKN090,0.00,VWS V12.08,2013-11-09 23:11:00,
2013-11-09 18:16:00,30.6,23.0,30.06,ESE,110,0.0,0.0,73,0.00,,BKN090,0.00,VWS V12.08,2013-11-09 23:16:00,
2013-11-09 18:21:00,30.6,23.0,30.06,ESE,110,0.0,0.0,73,0.00,,BKN090,0.00,VWS V12.08,2013-11-09 23:21:00,
2013-11-09 18:26:00,30.7,23.1,30.06,ESE,110,0.0,0.0,73,0.00,,BKN090,0.00,VWS V12.08,2013-11-09 23:26:00,
2013-11-09 18:31:00,30.9,23.3,30.06,ESE,110,0.0,0.0,73,0.00,,BKN090,0.00,VWS V12.08,2013-11-09 23:31:00,
2013-11-09 18:36:00,31.0,23.4,30.06,ESE,110,0.0,0.0,73,0.00,,BKN090,0.00,VWS V12.08,2013-11-09 23:36:00,
2013-11-09 18:41:00,31.2,23.6,30.06,ESE,110,0.0,0.0,73,0.00,,OVC090,0.00,VWS V12.08,2013-11-09 23:41:00,
2013-11-09 18:46:00,31.2,23.9,30.05,ESE,110,0.0,0.0,74,0.00,,OVC090,0.00,VWS V12.08,2013-11-09 23:46:00,
2013-11-09 18:51:00,31.3,23.7,30.05,ESE,110,0.0,0.0,73,0.00,,OVC090,0.00,VWS V12.08,2013-11-09 23:51:00,
2013-11-09 18:56:00,31.3,24.0,30.05,ESE,110,0.0,0.0,74,0.00,,OVC090,0.00,VWS V12.08,2013-11-09 23:56:00,
2013-11-09 19:01:00,31.3,24.0,30.05,ESE,110,0.0,0.0,74,0.00,,OVC090,0.00,VWS V12.08,2013-11-10 00:01:00,
2013-11-09 19:06:00,31.3,24.0,30.05,ESE,110,0.0,0.0,74,0.00,,OVC090,0.00,VWS V12.08,2013-11-10 00:06:00,
2013-11-09 19:11:00,31.3,24.0,30.05,ESE,110,0.0,0.0,74,0.00,,OVC090,0.00,VWS V12.08,2013-11-10 00:11:00,
2013-11-09 19:16:00,31.3,24.0,30.05,ESE,110,0.0,0.0,74,0.00,,OVC090,0.00,VWS V12.08,2013-11-10 00:16:00,
2013-11-09 19:21:00,31.3,24.3,30.05,ESE,110,0.0,0.0,75,0.00,,OVC075,0.00,VWS V12.08,2013-11-10 00:21:00,
2013-11-09 19:26:00,31.3,24.6,30.05,ESE,110,0.0,0.0,76,0.00,,OVC075,0.00,VWS V12.08,2013-11-10 00:26:00,
2013-11-09 19:31:00,31.3,24.6,30.05,ESE,110,0.0,0.0,76,0.00,,OVC075,0.00,VWS V12.08,2013-11-10 00:31:00,
2013-11-09 19:36:00,31.5,24.5,30.05,ESE,110,0.0,0.0,75,0.00,,OVC075,0.00,VWS V12.08,2013-11-10 00:36:00,
2013-11-09 19:41:00,31.5,24.5,30.05,ESE,110,0.0,0.0,75,0.00,,OVC075,0.00,VWS V12.08,2013-11-10 00:41:00,
2013-11-09 19:46:00,31.5,24.8,30.05,ESE,110,0.0,0.0,76,0.00,,OVC075,0.00,VWS V12.08,2013-11-10 00:46:00,
2013-11-09 19:51:00,31.5,24.8,30.05,ESE,110,0.0,0.0,76,0.00,,OVC075,0.00,VWS V12.08,2013-11-10 00:51:00,
2013-11-09 19:56:00,31.5,24.8,30.05,ESE,110,0.0,0.0,76,0.00,,OVC075,0.00,VWS V12.08,2013-11-10 00:56:00,
2013-11-09 20:01:00,31.5,24.8,30.05,ESE,110,0.0,0.0,76,0.00,,OVC075,0.00,VWS V12.08,2013-11-10 01:01:00,
2013-11-09 20:06:00,31.3,24.6,30.05,ESE,110,0.0,0.0,76,0.00,,OVC075,0.00,VWS V12.08,2013-11-10 01:06:00,
2013-11-09 20:11:00,31.3,24.6,30.05,ESE,110,0.0,0.0,76,0.00,,OVC075,0.00,VWS V12.08,2013-11-10 01:11:00,
2013-11-09 20:16:00,31.3,24.6,30.05,ESE,110,0.0,0.0,76,0.00,,OVC075,0.00,VWS V12.08,2013-11-10 01:16:00,
2013-11-09 20:21:00,31.3,24.9,30.05,ESE,110,0.0,0.0,77,0.00,,OVC075,0.00,VWS V12.08,2013-11-10 01:21:00,
2013-11-09 20:26:00,31.3,24.9,30.05,ESE,110,0.0,0.0,77,0.00,,OVC075,0.00,VWS V12.08,2013-11-10 01:26:00,
2013-11-09 20:31:00,31.5,25.1,30.04,ESE,110,0.0,0.0,77,0.00,,OVC075,0.00,VWS V12.08,2013-11-10 01:31:00,
2013-11-09 20:36:00,31.3,24.9,30.04,ESE,110,1.0,2.0,77,0.00,,OVC075,0.00,VWS V12.08,2013-11-10 01:36:00,
2013-11-09 20:41:00,31.3,24.9,30.04,ESE,110,0.0,0.0,77,0.00,,OVC070,0.00,VWS V12.08,2013-11-10 01:41:00,
2013-11-09 20:46:00,31.3,24.9,30.04,ESE,110,0.0,0.0,77,0.00,,OVC070,0.00,VWS V12.08,2013-11-10 01:46:00,
2013-11-09 20:51:00,31.3,24.9,30.04,ESE,110,0.0,0.0,77,0.00,,OVC070,0.00,VWS V12.08,2013-11-10 01:51:00,
2013-11-09 20:56:00,31.5,25.1,30.04,ESE,110,0.0,0.0,77,0.00,,OVC070,0.00,VWS V12.08,2013-11-10 01:56:00,
2013-11-09 21:01:00,31.5,25.4,30.04,ESE,110,0.0,0.0,78,0.00,,OVC070,0.00,VWS V12.08,2013-11-10 02:01:00,
2013-11-09 21:06:00,31.5,25.4,30.04,ESE,110,0.0,0.0,78,0.00,,OVC070,0.00,VWS V12.08,2013-11-10 02:06:00,
2013-11-09 21:11:00,31.5,25.4,30.04,ESE,110,0.0,0.0,78,0.00,,OVC070,0.00,VWS V12.08,2013-11-10 02:11:00,
2013-11-09 21:16:00,31.5,25.4,30.03,ESE,110,0.0,0.0,78,0.00,,OVC070,0.00,VWS V12.08,2013-11-10 02:16:00,
2013-11-09 21:21:00,31.5,25.4,30.03,ESE,110,0.0,0.0,78,0.00,,OVC070,0.00,VWS V12.08,2013-11-10 02:21:00,
2013-11-09 21:26:00,31.6,25.5,30.03,ESE,110,0.0,0.0,78,0.00,,OVC070,0.00,VWS V12.08,2013-11-10 02:26:00,
2013-11-09 21:31:00,31.5,25.1,30.03,ESE,110,0.0,0.0,77,0.00,,OVC070,0.00,VWS V12.08,2013-11-10 02:31:00,
2013-11-09 21:36:00,31.6,25.5,30.03,ESE,110,0.0,0.0,78,0.00,,OVC070,0.00,VWS V12.08,2013-11-10 02:36:00,
2013-11-09 21:41:00,31.6,25.9,30.03,ESE,110,0.0,0.0,79,0.00,,OVC065,0.00,VWS V12.08,2013-11-10 02:41:00,
2013-11-09 21:46:00,31.6,25.5,30.03,ESE,110,0.0,0.0,78,0.00,,OVC065,0.00,VWS V12.08,2013-11-10 02:46:00,
2013-11-09 21:51:00,31.8,25.7,30.03,ESE,110,0.0,0.0,78,0.00,,OVC065,0.00,VWS V12.08,2013-11-10 02:51:00,
2013-11-09 21:56:00,31.6,25.5,30.03,ESE,110,0.0,0.0,78,0.00,,OVC065,0.00,VWS V12.08,2013-11-10 02:56:00,
2013-11-09 22:01:00,31.6,25.9,30.03,ESE,110,0.0,0.0,79,0.00,,OVC065,0.00,VWS V12.08,2013-11-10 03:01:00,
2013-11-09 22:06:00,31.6,25.5,30.03,ESE,110,0.0,0.0,78,0.00,,OVC065,0.00,VWS V12.08,2013-11-10 03:06:00,
2013-11-09 22:11:00,31.6,25.9,30.03,ESE,110,0.0,0.0,79,0.00,,OVC065,0.00,VWS V12.08,2013-11-10 03:11:00,
2013-11-09 22:17:00,31.6,25.9,30.02,ESE,110,0.0,0.0,79,0.00,,OVC065,0.00,VWS V12.08,2013-11-10 03:17:00,
2013-11-09 22:22:00,31.6,25.9,30.02,ESE,110,0.0,0.0,79,0.00,,OVC065,0.00,VWS V12.08,2013-11-10 03:22:00,
2013-11-09 22:27:00,31.6,26.1,30.02,ESE,110,0.0,0.0,80,0.00,,OVC065,0.00,VWS V12.08,2013-11-10 03:27:00,
2013-11-09 22:32:00,31.6,26.1,30.00,ESE,110,0.0,3.0,80,0.00,,OVC065,0.00,VWS V12.08,2013-11-10 03:32:00,
2013-11-09 22:37:00,31.6,26.1,30.00,ESE,110,0.0,0.0,80,0.00,,OVC065,0.00,VWS V12.08,2013-11-10 03:37:00,
2013-11-09 22:42:00,31.5,26.0,30.00,ESE,110,0.0,0.0,80,0.00,,OVC085,0.00,VWS V12.08,2013-11-10 03:42:00,
2013-11-09 22:47:00,31.5,26.0,30.00,ESE,110,0.0,0.0,80,0.00,,OVC085,0.00,VWS V12.08,2013-11-10 03:47:00,
2013-11-09 22:52:00,31.5,26.0,30.00,ESE,110,0.0,0.0,80,0.00,,OVC085,0.00,VWS V12.08,2013-11-10 03:52:00,
2013-11-09 22:57:00,31.5,26.0,30.00,ESE,110,0.0,0.0,80,0.00,,OVC085,0.00,VWS V12.08,2013-11-10 03:57:00,
2013-11-09 23:02:00,31.3,25.9,29.99,ESE,110,0.0,0.0,80,0.00,,OVC085,0.00,VWS V12.08,2013-11-10 04:02:00,
2013-11-09 23:07:00,31.3,26.2,29.99,ESE,110,0.0,0.0,81,0.00,,OVC085,0.00,VWS V12.08,2013-11-10 04:07:00,
2013-11-09 23:12:00,31.2,26.1,29.99,ESE,110,0.0,0.0,81,0.00,,OVC085,0.00,VWS V12.08,2013-11-10 04:12:00,
2013-11-09 23:17:00,31.3,26.2,29.98,ESE,110,0.0,0.0,81,0.00,,OVC085,0.00,VWS V12.08,2013-11-10 04:17:00,
2013-11-09 23:22:00,31.3,26.2,29.98,ESE,110,0.0,0.0,81,0.00,,OVC085,0.00,VWS V12.08,2013-11-10 04:22:00,
2013-11-09 23:27:00,31.3,26.2,29.98,ESE,110,0.0,0.0,81,0.00,,OVC085,0.00,VWS V12.08,2013-11-10 04:27:00,
2013-11-09 23:32:00,31.5,26.4,29.97,ESE,110,0.0,0.0,81,0.00,,OVC085,0.00,VWS V12.08,2013-11-10 04:32:00,
2013-11-09 23:37:00,31.5,26.4,29.97,ESE,110,0.0,0.0,81,0.00,,OVC085,0.00,VWS V12.08,2013-11-10 04:37:00,
2013-11-09 23:42:00,31.6,26.5,29.97,ESE,110,0.0,0.0,81,0.00,,,0.00,VWS V12.08,2013-11-10 04:42:00,
2013-11-09 23:47:00,31.6,26.5,29.97,ESE,110,0.0,0.0,81,0.00,,,0.00,VWS V12.08,2013-11-10 04:47:00,
2013-11-09 23:52:00,31.6,26.5,29.97,ESE,110,0.0,0.0,81,0.00,,,0.00,VWS V12.08,2013-11-10 04:52:00,
2013-11-09 23:57:00,31.5,26.6,29.97,ESE,110,0.0,0.0,82,0.00,,,0.00,VWS V12.08,2013-11-10 04:57:00,